• Join FlightAware (Why Join?)
  • Login
  • US Flag 
08:44PM EST


 

Airport Tracker/Info


-or-


 

Live Flight TrackerFlight Track Log ✈ KAP927 ✈ 28-Jun-2013 ✈ KOGS - KALB

Flight Track Log - Related Links

Times and Time Zones

All times are in EDT time to prevent confusion due to time zone crossing. See the KAP927 flight status page for this flight to view local times or setup timezone preferences in your user account.

Time Position Orientation Groundspeed Altitude Reporting Facility
EDT Latitude Longitude Course Direction KTS MPH feet Rate Location/Type
07:09AM 44.5222 -75.3231 149° Southeast  Level Estimated
07:12AM 44.6200 -75.3656 149° Southeast 155 178 3,000  Level Boston Center
07:13AM 44.5933 -75.3525 161° South 133 153 3,500 500 Climbing Boston Center
07:14AM 44.5669 -75.3250 143° Southeast 122 140 4,000 450 Climbing Boston Center
07:15AM 44.5383 -75.2972 145° Southeast 117 135 4,400 450 Climbing Boston Center
07:16AM 44.5078 -75.2697 147° Southeast 117 135 4,900 500 Climbing Boston Center
07:17AM 44.4792 -75.2450 148° Southeast 122 140 5,400 500 Climbing Boston Center
07:18AM 44.4486 -75.2203 150° Southeast 122 140 5,900 500 Climbing Boston Center
07:19AM 44.4181 -75.1928 147° Southeast 127 146 6,400 500 Climbing Boston Center
07:20AM 44.3853 -75.1678 151° Southeast 127 146 6,900 350 Climbing Boston Center
07:21AM 44.3528 -75.1375 146° Southeast 135 155 7,100 91 Climbing Boston Center
07:22AM 44.3097 -75.1036 151° Southeast 146 168 7,100  Level Boston Center
07:23AM 44.2708 -75.0669 146° Southeast 159 183 7,100  Level Boston Center
07:24AM 44.2300 -75.0361 152° Southeast 159 183 7,100  Level Boston Center
07:25AM 44.1911 -75.0025 148° Southeast 164 189 7,100  Level Boston Center
07:26AM 44.1503 -74.9661 147° Southeast 164 189 7,100  Level Boston Center
07:27AM 44.1133 -74.9356 149° Southeast 164 189 7,100  Level Boston Center
07:28AM 44.0767 -74.8994 145° Southeast 164 189 7,100  Level Boston Center
07:29AM 44.0397 -74.8692 149° Southeast 164 189 7,100  Level Boston Center
07:30AM 44.0028 -74.8417 152° Southeast 159 183 7,100  Level Boston Center
07:31AM 43.9661 -74.8111 149° Southeast 159 183 7,100 50 Level Boston Center
07:32AM 43.9311 -74.7781 146° Southeast 159 183 7,200 -50 Climbing Boston Center
07:33AM 43.8964 -74.7536 153° Southeast 159 183 7,000 -100 Descending Boston Center
07:34AM 43.8614 -74.7236 148° Southeast 154 177 7,000 50 Level Boston Center
07:35AM 43.8267 -74.6906 146° Southeast 154 177 7,100 50 Climbing Boston Center
07:36AM 43.7958 -74.6664 150° Southeast 154 177 7,100  Level Boston Center
07:37AM 43.7611 -74.6364 148° Southeast 149 171 7,100  Level Boston Center
07:38AM 43.7261 -74.6122 153° Southeast 149 171 7,100  Level Boston Center
07:39AM 43.6911 -74.5822 148° Southeast 149 171 7,100  Level Boston Center
07:41AM 43.6564 -74.5522 148° Southeast 149 171 7,100  Level Boston Center
07:42AM 43.6153 -74.5164 148° Southeast 149 171 7,100  Level Boston Center
07:43AM 43.5803 -74.4894 151° Southeast 149 171 7,100  Level Boston Center
07:44AM 43.5475 -74.4625 149° Southeast 143 165 7,100  Level Boston Center
07:45AM 43.5167 -74.4356 148° Southeast 138 159 7,100  Level Boston Center
07:46AM 43.4817 -74.4086 151° Southeast 138 159 7,100  Level Boston Center
07:47AM 43.4469 -74.3789 148° Southeast 138 159 7,100  Level Boston Center
07:48AM 43.4139 -74.3467 145° Southeast 138 159 7,100 -50 Level Boston Center
07:49AM 43.3792 -74.3169 148° Southeast 138 159 7,000 -50 Descending Boston Center
07:50AM 43.3400 -74.2842 149° Southeast 145 167 7,000  Level Boston Center
07:51AM 43.3069 -74.2606 153° Southeast 145 167 7,000 -50 Level Boston Center
07:52AM 43.2681 -74.2281 149° Southeast 145 167 6,900 -300 Descending Boston Center
07:53AM 43.2289 -74.1869 143° Southeast 165 190 6,400 -500 Descending Boston Center
07:54AM 43.1881 -74.1344 137° Southeast 184 212 5,900 -600 Descending Boston Center
07:55AM 43.1492 -74.0822 136° Southeast 191 220 5,200 -700 Descending Boston Center
07:56AM 43.1083 -74.0328 139° Southeast 191 220 4,500 -500 Descending Boston Center
07:57AM 43.0714 -73.9864 137° Southeast 191 220 4,200 -250 Descending Boston Center
07:58AM 43.0325 -73.9428 141° Southeast 185 213 4,000 -400 Descending Boston Center
07:59AM 42.9975 -73.8992 138° Southeast 185 213 3,400 -500 Descending Boston Center
08:00AM 42.9586 -73.8531 139° Southeast 185 213 3,000 -350 Descending Boston Center
08:01AM 42.9214 -73.8181 145° Southeast 175 201 2,700 -245 Descending Boston Center
08:02AM 42.8653 -73.8139 177° South 132 152 2,400 -408 Descending Boston Center
08:03AM 42.8256 -73.8103 176° South 150 173 1,700 -744 Descending Boston Center
08:04AM 42.7839 -73.8064 176° South 131 151 900 -787 Descending Boston Center
08:06AM 42.7491 -73.8020 160° South  Level Estimated
08:13AM 42.7491 -73.8020 160° South  Level Estimated
08:14AM 42.7491 -73.8020 160° South  Level Estimated
08:15AM 42.7491 -73.8020 160° South  Level Estimated